Johnny James — WYT8450 — position and weather

sailwx.info

Track history (hours):
 
Tides and Currents Weather Stations Pressure Air Temp Water Temp Dewpoint Dewpoint Depression Visibility Wind Speed Wind Dir Waves Ship Positions

Johnny James

Owner: CALLAIS & SONS INC, CUT OFF, LA. More information available from US FCC via Universal Licensing System and Coast Guard Vessel Documentation Center.

Last reported at 2014-Dec-22 09:27 UTC. Time now 2014-Dec-22 09:53 UTC.
Position N 29°45' W 095°06'.

Length 20 m.

Type: Towing. MMSI: 367005220.

Date/timePositionNaut miles runAvg speedWind from/ knotsBaromVisibWave heightAir tempDewpointWater temp
2014-Dec-22 09:27N 29°45' W 095°06'0 0.0
2014-Dec-22 04:31N 29°46' W 095°06'0 0.0
2014-Dec-22 03:33N 29°46' W 095°06'0 0.0
2014-Dec-22 02:33N 29°46' W 095°06'0 0.0
2014-Dec-22 01:28N 29°46' W 095°06'0 0.0
2014-Dec-21 23:07N 29°45' W 095°06'0 0.0
2014-Dec-21 22:20N 29°45' W 095°06'0 0.0
2014-Dec-21 21:33N 29°45' W 095°06'0 0.0
2014-Dec-21 20:33N 29°45' W 095°06'0 0.0
2014-Dec-21 19:26N 29°45' W 095°06'0 0.0
2014-Dec-21 18:31N 29°45' W 095°06'0 0.0
2014-Dec-21 17:29N 29°45' W 095°06'0 0.0
2014-Dec-21 16:33N 29°45' W 095°06'0 0.0
2014-Dec-21 15:33N 29°45' W 095°06'0 0.0
2014-Dec-21 14:32N 29°45' W 095°06'0 0.0
2014-Dec-21 13:34N 29°45' W 095°06'0 0.0
2014-Dec-21 10:14N 29°45' W 095°06'0 0.0
2014-Dec-21 09:34N 29°45' W 095°06'0 0.0
2014-Dec-21 08:19N 29°45' W 095°06'0 0.0
2014-Dec-21 05:17N 29°45' W 095°06'0 0.0
2014-Dec-21 04:33N 29°45' W 095°06'0 0.0
2014-Dec-21 03:33N 29°45' W 095°06'0 0.0
2014-Dec-21 02:18N 29°45' W 095°06'0 0.0
2014-Dec-20 23:25N 29°45' W 095°06'0 0.0
2014-Dec-20 22:33N 29°45' W 095°06'0 0.0
2014-Dec-20 21:34N 29°45' W 095°06'0 0.0
2014-Dec-20 20:34N 29°45' W 095°06'0 0.0
2014-Dec-20 19:33N 29°45' W 095°06'0 0.0
2014-Dec-20 18:33N 29°45' W 095°06'0 0.0
2014-Dec-20 17:34N 29°45' W 095°06'0 0.0
2014-Dec-20 16:33N 29°45' W 095°06'0 0.0
2014-Dec-20 15:33N 29°45' W 095°06'0 0.0
2014-Dec-20 14:33N 29°45' W 095°06'0 0.0
2014-Dec-20 13:30N 29°45' W 095°06'0 0.0
2014-Dec-20 12:29N 29°45' W 095°06'0 0.0
2014-Dec-20 10:30N 29°45' W 095°06'0 0.0
2014-Dec-20 09:33N 29°45' W 095°06'0 0.0
2014-Dec-20 08:32N 29°45' W 095°06'0 0.0
2014-Dec-20 07:32N 29°45' W 095°06'0 0.0
2014-Dec-20 06:33N 29°45' W 095°06'0 0.0
2014-Dec-20 05:22N 29°45' W 095°06'0 0.0
2014-Dec-20 04:27N 29°45' W 095°06'0 0.0
2014-Dec-20 02:25N 29°45' W 095°06'0 0.1
2014-Dec-20 00:20N 29°46' W 095°06'0 0.3
2014-Dec-19 23:17N 29°46' W 095°06'0 0.5
2014-Dec-19 22:32N 29°45' W 095°06'0 0.0
2014-Dec-19 21:33N 29°45' W 095°06'0 0.0
2014-Dec-19 20:33N 29°45' W 095°06'0 0.0
2014-Dec-19 19:33N 29°45' W 095°06'0 0.0
2014-Dec-19 18:33N 29°46' W 095°06'0 0.0
2014-Dec-19 17:33N 29°46' W 095°06'2 2.3
2014-Dec-19 16:33N 29°44' W 095°03'1 0.6
2014-Dec-19 15:33N 29°44' W 095°03'0 0.0
2014-Dec-19 14:33N 29°44' W 095°03'0 0.0
2014-Dec-19 01:33N 29°44' W 095°03'0 0.0
2014-Dec-19 00:33N 29°44' W 095°03'0 0.0
2014-Dec-18 22:26N 29°44' W 095°03'0 0.0
2014-Dec-18 20:29N 29°44' W 095°03'0 0.0
2014-Dec-18 18:08N 29°44' W 095°03'0 0.0
2014-Dec-18 17:13N 29°44' W 095°03'0 0.1
2014-Dec-18 16:33N 29°44' W 095°03'0 0.0
2014-Dec-18 15:27N 29°44' W 095°03'0 0.0
2014-Dec-18 14:31N 29°44' W 095°03'0 0.0
2014-Dec-18 13:33N 29°44' W 095°03'1 1.3
2014-Dec-18 12:27N 29°45' W 095°04'2 0.5
2014-Dec-18 09:30N 29°45' W 095°06'0 0.1
2014-Dec-18 08:31N 29°45' W 095°06'8 1.1
2014-Dec-18 01:32N 29°43' W 095°14'0 0.0
2014-Dec-17 17:12N 29°43' W 095°14'0 0.0
2014-Dec-17 15:33N 29°43' W 095°14'0 0.0
2014-Dec-17 14:33N 29°43' W 095°14'7 0.7
2014-Dec-17 04:22N 29°45' W 095°06'1 1.0
2014-Dec-17 03:33N 29°46' W 095°06'0 0.0
2014-Dec-17 02:31N 29°46' W 095°06'0 0.0
2014-Dec-17 01:20N 29°46' W 095°06'0 0.0
2014-Dec-17 00:33N 29°46' W 095°06'0 0.0
2014-Dec-16 23:30N 29°46' W 095°06'0 0.1
2014-Dec-16 22:33N 29°45' W 095°06'0 0.0
2014-Dec-16 21:33N 29°45' W 095°06'0 0.0
2014-Dec-16 20:33N 29°45' W 095°06'0 0.0
2014-Dec-16 19:33N 29°45' W 095°06'0 0.0
2014-Dec-16 18:33N 29°45' W 095°06'0 0.0
2014-Dec-16 17:33N 29°45' W 095°06'0 0.0
2014-Dec-16 16:33N 29°45' W 095°06'0 0.0
2014-Dec-16 15:33N 29°45' W 095°06'0 0.0
2014-Dec-16 14:33N 29°45' W 095°06'0 0.0
2014-Dec-16 13:33N 29°45' W 095°06'0 0.0
2014-Dec-16 12:33N 29°45' W 095°06'0 0.0
2014-Dec-16 11:33N 29°45' W 095°06'0 0.0
2014-Dec-16 10:33N 29°45' W 095°06'0 0.0
2014-Dec-16 09:33N 29°45' W 095°06'0 0.0
2014-Dec-16 08:33N 29°45' W 095°06'0 0.0
2014-Dec-16 07:33N 29°45' W 095°06'0 0.1
2014-Dec-16 06:33N 29°46' W 095°06'0 0.0
2014-Dec-16 05:33N 29°45' W 095°06'0 0.0
2014-Dec-16 04:33N 29°46' W 095°06'0 0.0
2014-Dec-16 03:32N 29°46' W 095°06'0 0.0
2014-Dec-16 02:33N 29°46' W 095°06'0 0.0
2014-Dec-16 01:22N 29°46' W 095°06'0 0.0
2014-Dec-16 00:26N 29°46' W 095°06'0 0.1
2014-Dec-15 23:33N 29°45' W 095°06'0 0.0
2014-Dec-15 22:34N 29°45' W 095°06'0 0.0
2014-Dec-15 21:33N 29°45' W 095°06'0 0.0
2014-Dec-15 20:33N 29°45' W 095°06'0 0.0
2014-Dec-15 19:33N 29°45' W 095°06'0 0.0
2014-Dec-15 18:33N 29°45' W 095°06'0 0.4
2014-Dec-15 17:33N 29°46' W 095°06'0 0.0
2014-Dec-15 16:33N 29°46' W 095°06'0 0.4
2014-Dec-15 15:33N 29°45' W 095°06'0 0.3
2014-Dec-15 14:33N 29°46' W 095°05'0 0.3
2014-Dec-15 13:33N 29°45' W 095°06'0 0.0
2014-Dec-15 09:18N 29°45' W 095°06'0 0.1
2014-Dec-15 05:30N 29°45' W 095°06'0 0.1
2014-Dec-14 23:28N 29°45' W 095°06'0 0.0
2014-Dec-14 22:33N 29°45' W 095°06'0 0.0
2014-Dec-14 20:23N 29°45' W 095°06'0 0.0
2014-Dec-14 19:33N 29°45' W 095°06'0 0.0
2014-Dec-14 18:33N 29°45' W 095°06'0 0.0
2014-Dec-14 17:33N 29°45' W 095°06'0 0.0
2014-Dec-14 16:33N 29°45' W 095°06'0 0.0
2014-Dec-14 15:33N 29°45' W 095°06'0 0.0
2014-Dec-14 14:33N 29°45' W 095°06'0 0.0
2014-Dec-14 13:33N 29°45' W 095°06'0 0.0
2014-Dec-14 11:11N 29°45' W 095°06'0 0.0
2014-Dec-14 10:26N 29°45' W 095°06'0 0.0
2014-Dec-14 09:28N 29°45' W 095°06'0 0.0
2014-Dec-14 07:32N 29°45' W 095°06'0 0.0
2014-Dec-14 05:11N 29°45' W 095°06'0 0.0
2014-Dec-13 22:29N 29°45' W 095°06'0 0.0
2014-Dec-13 21:23N 29°45' W 095°06'0 0.0
2014-Dec-13 20:27N 29°45' W 095°06'0 0.0
2014-Dec-13 19:04N 29°45' W 095°06'0 0.0
2014-Dec-13 18:27N 29°45' W 095°06'0 0.5
2014-Dec-13 17:33N 29°46' W 095°06'0 0.0
2014-Dec-13 16:33N 29°46' W 095°06'0 0.0
2014-Dec-13 15:33N 29°46' W 095°06'0 0.0
2014-Dec-13 14:33N 29°46' W 095°06'0 0.0
2014-Dec-13 13:33N 29°46' W 095°06'0 0.0
2014-Dec-13 12:33N 29°46' W 095°06'0 0.3
2014-Dec-13 11:33N 29°46' W 095°06'0 0.0
2014-Dec-13 10:33N 29°46' W 095°06'0 0.0
2014-Dec-13 09:33N 29°46' W 095°06'0 0.0
2014-Dec-13 08:33N 29°46' W 095°06'0 0.0
2014-Dec-13 07:33N 29°46' W 095°06'0 0.0
2014-Dec-13 06:33N 29°46' W 095°06'0 0.0
2014-Dec-13 05:33N 29°46' W 095°06'0 0.0
2014-Dec-13 04:33N 29°46' W 095°06'0 0.0
2014-Dec-13 03:33N 29°46' W 095°06'0 0.0
2014-Dec-13 02:33N 29°46' W 095°06'0 0.0
2014-Dec-13 01:33N 29°45' W 095°06'0 0.1
2014-Dec-13 00:33N 29°45' W 095°06'0 0.0
2014-Dec-12 23:33N 29°45' W 095°06'0 0.0
2014-Dec-12 22:33N 29°45' W 095°06'0 0.0
2014-Dec-12 21:33N 29°45' W 095°06'0 0.0
2014-Dec-12 20:33N 29°45' W 095°06'0 0.0
2014-Dec-12 19:33N 29°45' W 095°06'0 0.0
2014-Dec-12 18:33N 29°45' W 095°06'0 0.0
2014-Dec-12 17:33N 29°45' W 095°06'0 0.0
2014-Dec-12 16:33N 29°45' W 095°06'0 0.1
2014-Dec-12 15:33N 29°46' W 095°06'2 2.0
2014-Dec-12 14:33N 29°47' W 095°04'2 1.7
2014-Dec-12 13:33N 29°46' W 095°06'0 0.5
2014-Dec-12 12:33N 29°45' W 095°06'2 2.1
2014-Dec-12 11:33N 29°45' W 095°04'1 0.9
2014-Dec-12 10:33N 29°44' W 095°03'0 0.0
2014-Dec-12 09:33N 29°44' W 095°03'  
Track history (hours):
 
Tides and Currents Weather Stations Pressure Air Temp Water Temp Dewpoint Dewpoint Depression Visibility Wind Speed Wind Dir Waves Ship Positions

Johnny James

Owner: CALLAIS & SONS INC, CUT OFF, LA. More information available from US FCC via Universal Licensing System and Coast Guard Vessel Documentation Center.

Last reported at 2014-Dec-22 09:27 UTC. Time now 2014-Dec-22 09:53 UTC.
Position N 29°45' W 095°06'.

Length 20 m.

Type: Towing. MMSI: 367005220.

Date/timePositionNaut miles runAvg speedWind from/ knotsBaromVisibWave heightAir tempDewpointWater temp
2014-Dec-22 09:27N 29°45' W 095°06'0 0.0
2014-Dec-22 04:31N 29°46' W 095°06'0 0.0
2014-Dec-22 03:33N 29°46' W 095°06'0 0.0
2014-Dec-22 02:33N 29°46' W 095°06'0 0.0
2014-Dec-22 01:28N 29°46' W 095°06'0 0.0
2014-Dec-21 23:07N 29°45' W 095°06'0 0.0
2014-Dec-21 22:20N 29°45' W 095°06'0 0.0
2014-Dec-21 21:33N 29°45' W 095°06'0 0.0
2014-Dec-21 20:33N 29°45' W 095°06'0 0.0
2014-Dec-21 19:26N 29°45' W 095°06'0 0.0
2014-Dec-21 18:31N 29°45' W 095°06'0 0.0
2014-Dec-21 17:29N 29°45' W 095°06'0 0.0
2014-Dec-21 16:33N 29°45' W 095°06'0 0.0
2014-Dec-21 15:33N 29°45' W 095°06'0 0.0
2014-Dec-21 14:32N 29°45' W 095°06'0 0.0
2014-Dec-21 13:34N 29°45' W 095°06'0 0.0
2014-Dec-21 10:14N 29°45' W 095°06'0 0.0
2014-Dec-21 09:34N 29°45' W 095°06'0 0.0
2014-Dec-21 08:19N 29°45' W 095°06'0 0.0
2014-Dec-21 05:17N 29°45' W 095°06'0 0.0
2014-Dec-21 04:33N 29°45' W 095°06'0 0.0
2014-Dec-21 03:33N 29°45' W 095°06'0 0.0
2014-Dec-21 02:18N 29°45' W 095°06'0 0.0
2014-Dec-20 23:25N 29°45' W 095°06'0 0.0
2014-Dec-20 22:33N 29°45' W 095°06'0 0.0
2014-Dec-20 21:34N 29°45' W 095°06'0 0.0
2014-Dec-20 20:34N 29°45' W 095°06'0 0.0
2014-Dec-20 19:33N 29°45' W 095°06'0 0.0
2014-Dec-20 18:33N 29°45' W 095°06'0 0.0
2014-Dec-20 17:34N 29°45' W 095°06'0 0.0
2014-Dec-20 16:33N 29°45' W 095°06'0 0.0
2014-Dec-20 15:33N 29°45' W 095°06'0 0.0
2014-Dec-20 14:33N 29°45' W 095°06'0 0.0
2014-Dec-20 13:30N 29°45' W 095°06'0 0.0
2014-Dec-20 12:29N 29°45' W 095°06'0 0.0
2014-Dec-20 10:30N 29°45' W 095°06'0 0.0
2014-Dec-20 09:33N 29°45' W 095°06'0 0.0
2014-Dec-20 08:32N 29°45' W 095°06'0 0.0
2014-Dec-20 07:32N 29°45' W 095°06'0 0.0
2014-Dec-20 06:33N 29°45' W 095°06'0 0.0
2014-Dec-20 05:22N 29°45' W 095°06'0 0.0
2014-Dec-20 04:27N 29°45' W 095°06'0 0.0
2014-Dec-20 02:25N 29°45' W 095°06'0 0.1
2014-Dec-20 00:20N 29°46' W 095°06'0 0.3
2014-Dec-19 23:17N 29°46' W 095°06'0 0.5
2014-Dec-19 22:32N 29°45' W 095°06'0 0.0
2014-Dec-19 21:33N 29°45' W 095°06'0 0.0
2014-Dec-19 20:33N 29°45' W 095°06'0 0.0
2014-Dec-19 19:33N 29°45' W 095°06'0 0.0
2014-Dec-19 18:33N 29°46' W 095°06'0 0.0
2014-Dec-19 17:33N 29°46' W 095°06'2 2.3
2014-Dec-19 16:33N 29°44' W 095°03'1 0.6
2014-Dec-19 15:33N 29°44' W 095°03'0 0.0
2014-Dec-19 14:33N 29°44' W 095°03'0 0.0
2014-Dec-19 01:33N 29°44' W 095°03'0 0.0
2014-Dec-19 00:33N 29°44' W 095°03'0 0.0
2014-Dec-18 22:26N 29°44' W 095°03'0 0.0
2014-Dec-18 20:29N 29°44' W 095°03'0 0.0
2014-Dec-18 18:08N 29°44' W 095°03'0 0.0
2014-Dec-18 17:13N 29°44' W 095°03'0 0.1
2014-Dec-18 16:33N 29°44' W 095°03'0 0.0
2014-Dec-18 15:27N 29°44' W 095°03'0 0.0
2014-Dec-18 14:31N 29°44' W 095°03'0 0.0
2014-Dec-18 13:33N 29°44' W 095°03'1 1.3
2014-Dec-18 12:27N 29°45' W 095°04'2 0.5
2014-Dec-18 09:30N 29°45' W 095°06'0 0.1
2014-Dec-18 08:31N 29°45' W 095°06'8 1.1
2014-Dec-18 01:32N 29°43' W 095°14'0 0.0
2014-Dec-17 17:12N 29°43' W 095°14'0 0.0
2014-Dec-17 15:33N 29°43' W 095°14'0 0.0
2014-Dec-17 14:33N 29°43' W 095°14'7 0.7
2014-Dec-17 04:22N 29°45' W 095°06'1 1.0
2014-Dec-17 03:33N 29°46' W 095°06'0 0.0
2014-Dec-17 02:31N 29°46' W 095°06'0 0.0
2014-Dec-17 01:20N 29°46' W 095°06'0 0.0
2014-Dec-17 00:33N 29°46' W 095°06'0 0.0
2014-Dec-16 23:30N 29°46' W 095°06'0 0.1
2014-Dec-16 22:33N 29°45' W 095°06'0 0.0
2014-Dec-16 21:33N 29°45' W 095°06'0 0.0
2014-Dec-16 20:33N 29°45' W 095°06'0 0.0
2014-Dec-16 19:33N 29°45' W 095°06'0 0.0
2014-Dec-16 18:33N 29°45' W 095°06'0 0.0
2014-Dec-16 17:33N 29°45' W 095°06'0 0.0
2014-Dec-16 16:33N 29°45' W 095°06'0 0.0
2014-Dec-16 15:33N 29°45' W 095°06'0 0.0
2014-Dec-16 14:33N 29°45' W 095°06'0 0.0
2014-Dec-16 13:33N 29°45' W 095°06'0 0.0
2014-Dec-16 12:33N 29°45' W 095°06'0 0.0
2014-Dec-16 11:33N 29°45' W 095°06'0 0.0
2014-Dec-16 10:33N 29°45' W 095°06'0 0.0
2014-Dec-16 09:33N 29°45' W 095°06'0 0.0
2014-Dec-16 08:33N 29°45' W 095°06'0 0.0
2014-Dec-16 07:33N 29°45' W 095°06'0 0.1
2014-Dec-16 06:33N 29°46' W 095°06'0 0.0
2014-Dec-16 05:33N 29°45' W 095°06'0 0.0
2014-Dec-16 04:33N 29°46' W 095°06'0 0.0
2014-Dec-16 03:32N 29°46' W 095°06'0 0.0
2014-Dec-16 02:33N 29°46' W 095°06'0 0.0
2014-Dec-16 01:22N 29°46' W 095°06'0 0.0
2014-Dec-16 00:26N 29°46' W 095°06'0 0.1
2014-Dec-15 23:33N 29°45' W 095°06'0 0.0
2014-Dec-15 22:34N 29°45' W 095°06'0 0.0
2014-Dec-15 21:33N 29°45' W 095°06'0 0.0
2014-Dec-15 20:33N 29°45' W 095°06'0 0.0
2014-Dec-15 19:33N 29°45' W 095°06'0 0.0
2014-Dec-15 18:33N 29°45' W 095°06'0 0.4
2014-Dec-15 17:33N 29°46' W 095°06'0 0.0
2014-Dec-15 16:33N 29°46' W 095°06'0 0.4
2014-Dec-15 15:33N 29°45' W 095°06'0 0.3
2014-Dec-15 14:33N 29°46' W 095°05'0 0.3
2014-Dec-15 13:33N 29°45' W 095°06'0 0.0
2014-Dec-15 09:18N 29°45' W 095°06'0 0.1
2014-Dec-15 05:30N 29°45' W 095°06'0 0.1
2014-Dec-14 23:28N 29°45' W 095°06'0 0.0
2014-Dec-14 22:33N 29°45' W 095°06'0 0.0
2014-Dec-14 20:23N 29°45' W 095°06'0 0.0
2014-Dec-14 19:33N 29°45' W 095°06'0 0.0
2014-Dec-14 18:33N 29°45' W 095°06'0 0.0
2014-Dec-14 17:33N 29°45' W 095°06'0 0.0
2014-Dec-14 16:33N 29°45' W 095°06'0 0.0
2014-Dec-14 15:33N 29°45' W 095°06'0 0.0
2014-Dec-14 14:33N 29°45' W 095°06'0 0.0
2014-Dec-14 13:33N 29°45' W 095°06'0 0.0
2014-Dec-14 11:11N 29°45' W 095°06'0 0.0
2014-Dec-14 10:26N 29°45' W 095°06'0 0.0
2014-Dec-14 09:28N 29°45' W 095°06'0 0.0
2014-Dec-14 07:32N 29°45' W 095°06'0 0.0
2014-Dec-14 05:11N 29°45' W 095°06'0 0.0
2014-Dec-13 22:29N 29°45' W 095°06'0 0.0
2014-Dec-13 21:23N 29°45' W 095°06'0 0.0
2014-Dec-13 20:27N 29°45' W 095°06'0 0.0
2014-Dec-13 19:04N 29°45' W 095°06'0 0.0
2014-Dec-13 18:27N 29°45' W 095°06'0 0.5
2014-Dec-13 17:33N 29°46' W 095°06'0 0.0
2014-Dec-13 16:33N 29°46' W 095°06'0 0.0
2014-Dec-13 15:33N 29°46' W 095°06'0 0.0
2014-Dec-13 14:33N 29°46' W 095°06'0 0.0
2014-Dec-13 13:33N 29°46' W 095°06'0 0.0
2014-Dec-13 12:33N 29°46' W 095°06'0 0.3
2014-Dec-13 11:33N 29°46' W 095°06'0 0.0
2014-Dec-13 10:33N 29°46' W 095°06'0 0.0
2014-Dec-13 09:33N 29°46' W 095°06'0 0.0
2014-Dec-13 08:33N 29°46' W 095°06'0 0.0
2014-Dec-13 07:33N 29°46' W 095°06'0 0.0
2014-Dec-13 06:33N 29°46' W 095°06'0 0.0
2014-Dec-13 05:33N 29°46' W 095°06'0 0.0
2014-Dec-13 04:33N 29°46' W 095°06'0 0.0
2014-Dec-13 03:33N 29°46' W 095°06'0 0.0
2014-Dec-13 02:33N 29°46' W 095°06'0 0.0
2014-Dec-13 01:33N 29°45' W 095°06'0 0.1
2014-Dec-13 00:33N 29°45' W 095°06'0 0.0
2014-Dec-12 23:33N 29°45' W 095°06'0 0.0
2014-Dec-12 22:33N 29°45' W 095°06'0 0.0
2014-Dec-12 21:33N 29°45' W 095°06'0 0.0
2014-Dec-12 20:33N 29°45' W 095°06'0 0.0
2014-Dec-12 19:33N 29°45' W 095°06'0 0.0
2014-Dec-12 18:33N 29°45' W 095°06'0 0.0
2014-Dec-12 17:33N 29°45' W 095°06'0 0.0
2014-Dec-12 16:33N 29°45' W 095°06'0 0.1
2014-Dec-12 15:33N 29°46' W 095°06'2 2.0
2014-Dec-12 14:33N 29°47' W 095°04'2 1.7
2014-Dec-12 13:33N 29°46' W 095°06'0 0.5
2014-Dec-12 12:33N 29°45' W 095°06'2 2.1
2014-Dec-12 11:33N 29°45' W 095°04'1 0.9
2014-Dec-12 10:33N 29°44' W 095°03'0 0.0
2014-Dec-12 09:33N 29°44' W 095°03'  

Dump ship's entire track history